sensor_id;sensor_type;location;lat;lon;timestamp;pressure;altitude;pressure_sealevel;temperature;humidity
52249;BME280;38541;48.130;8.378;2023-11-19T00:02:26;92801.84;;;9.07;85.28
52249;BME280;38541;48.130;8.378;2023-11-19T00:04:53;92809.22;;;9.16;84.94
52249;BME280;38541;48.130;8.378;2023-11-19T00:07:20;92813.41;;;9.17;84.70
52249;BME280;38541;48.130;8.378;2023-11-19T00:09:47;92817.13;;;9.21;84.78
52249;BME280;38541;48.130;8.378;2023-11-19T00:12:14;92816.13;;;9.27;84.70
52249;BME280;38541;48.130;8.378;2023-11-19T00:14:41;92824.03;;;9.37;84.71
52249;BME280;38541;48.130;8.378;2023-11-19T00:17:07;92822.53;;;9.41;84.52
52249;BME280;38541;48.130;8.378;2023-11-19T00:19:34;92823.03;;;9.38;84.59
52249;BME280;38541;48.130;8.378;2023-11-19T00:22:00;92811.97;;;9.36;84.78
52249;BME280;38541;48.130;8.378;2023-11-19T00:24:30;92807.03;;;9.40;84.78
52249;BME280;38541;48.130;8.378;2023-11-19T00:26:57;92809.88;;;9.33;84.82
52249;BME280;38541;48.130;8.378;2023-11-19T00:29:23;92799.38;;;9.33;85.40
52249;BME280;38541;48.130;8.378;2023-11-19T00:31:50;92795.72;;;9.34;85.46
52249;BME280;38541;48.130;8.378;2023-11-19T00:34:17;92772.16;;;9.39;85.63
52249;BME280;38541;48.130;8.378;2023-11-19T00:36:47;92779.00;;;9.40;85.48
52249;BME280;38541;48.130;8.378;2023-11-19T00:39:15;92769.28;;;9.41;85.63
52249;BME280;38541;48.130;8.378;2023-11-19T00:41:42;92752.78;;;9.40;85.36
52249;BME280;38541;48.130;8.378;2023-11-19T00:44:09;92758.25;;;9.39;85.14
52249;BME280;38541;48.130;8.378;2023-11-19T00:46:36;92739.13;;;9.38;84.73
52249;BME280;38541;48.130;8.378;2023-11-19T00:49:03;92753.53;;;9.41;84.98
52249;BME280;38541;48.130;8.378;2023-11-19T00:51:30;92768.53;;;9.46;84.94
52249;BME280;38541;48.130;8.378;2023-11-19T00:53:58;92742.81;;;9.48;84.86
52249;BME280;38541;48.130;8.378;2023-11-19T00:56:25;92759.09;;;9.50;84.70
52249;BME280;38541;48.130;8.378;2023-11-19T00:58:52;92742.53;;;9.44;84.96
52249;BME280;38541;48.130;8.378;2023-11-19T01:01:18;92755.41;;;9.46;84.70
52249;BME280;38541;48.130;8.378;2023-11-19T01:03:45;92749.13;;;9.47;85.01
52249;BME280;38541;48.130;8.378;2023-11-19T01:06:12;92733.16;;;9.48;84.98
52249;BME280;38541;48.130;8.378;2023-11-19T01:08:42;92741.28;;;9.52;85.38
52249;BME280;38541;48.130;8.378;2023-11-19T01:11:19;92732.88;;;9.50;85.13
52249;BME280;38541;48.130;8.378;2023-11-19T01:13:47;92722.91;;;9.52;85.16
52249;BME280;38541;48.130;8.378;2023-11-19T01:16:14;92745.75;;;9.56;85.18
52249;BME280;38541;48.130;8.378;2023-11-19T01:18:41;92742.59;;;9.54;84.75
52249;BME280;38541;48.130;8.378;2023-11-19T01:21:08;92729.22;;;9.56;84.26
52249;BME280;38541;48.130;8.378;2023-11-19T01:23:35;92711.41;;;9.58;84.69
52249;BME280;38541;48.130;8.378;2023-11-19T01:26:03;92724.03;;;9.61;84.74
52249;BME280;38541;48.130;8.378;2023-11-19T01:28:31;92722.97;;;9.57;84.76
52249;BME280;38541;48.130;8.378;2023-11-19T01:30:58;92721.91;;;9.58;85.35
52249;BME280;38541;48.130;8.378;2023-11-19T01:33:25;92725.31;;;9.59;85.13
52249;BME280;38541;48.130;8.378;2023-11-19T01:35:51;92725.84;;;9.61;85.89
52249;BME280;38541;48.130;8.378;2023-11-19T01:38:18;92725.31;;;9.64;85.57
52249;BME280;38541;48.130;8.378;2023-11-19T01:40:44;92727.69;;;9.65;85.63
52249;BME280;38541;48.130;8.378;2023-11-19T01:43:11;92724.03;;;9.61;85.37
52249;BME280;38541;48.130;8.378;2023-11-19T01:45:39;92738.47;;;9.69;85.55
52249;BME280;38541;48.130;8.378;2023-11-19T01:48:06;92708.56;;;9.70;85.79
52249;BME280;38541;48.130;8.378;2023-11-19T01:50:33;92706.75;;;9.76;85.70
52249;BME280;38541;48.130;8.378;2023-11-19T01:53:00;92712.50;;;9.73;85.85
52249;BME280;38541;48.130;8.378;2023-11-19T01:55:27;92713.84;;;9.75;85.74
52249;BME280;38541;48.130;8.378;2023-11-19T01:57:59;92719.31;;;9.74;85.60
52249;BME280;38541;48.130;8.378;2023-11-19T02:00:27;92716.69;;;9.74;85.81
52249;BME280;38541;48.130;8.378;2023-11-19T02:02:55;92722.47;;;9.76;85.68
52249;BME280;38541;48.130;8.378;2023-11-19T02:05:22;92728.28;;;9.78;85.78
52249;BME280;38541;48.130;8.378;2023-11-19T02:07:49;92727.50;;;9.82;85.57
52249;BME280;38541;48.130;8.378;2023-11-19T02:10:17;92718.03;;;9.76;85.32
52249;BME280;38541;48.130;8.378;2023-11-19T02:12:45;92709.13;;;9.77;85.15
52249;BME280;38541;48.130;8.378;2023-11-19T02:15:12;92717.28;;;9.81;85.64
52249;BME280;38541;48.130;8.378;2023-11-19T02:17:39;92713.59;;;9.77;85.53
52249;BME280;38541;48.130;8.378;2023-11-19T02:20:06;92715.16;;;9.78;85.33
52249;BME280;38541;48.130;8.378;2023-11-19T02:22:35;92719.31;;;9.74;85.50
52249;BME280;38541;48.130;8.378;2023-11-19T02:25:04;92711.19;;;9.70;85.17
52249;BME280;38541;48.130;8.378;2023-11-19T02:30:07;92694.19;;;9.78;85.26
52249;BME280;38541;48.130;8.378;2023-11-19T02:32:35;92691.50;;;9.73;84.96
52249;BME280;38541;48.130;8.378;2023-11-19T02:35:02;92727.47;;;9.72;84.92
52249;BME280;38541;48.130;8.378;2023-11-19T02:37:31;92680.78;;;9.74;85.08
52249;BME280;38541;48.130;8.378;2023-11-19T02:39:58;92684.72;;;9.77;85.32
52249;BME280;38541;48.130;8.378;2023-11-19T02:42:35;92714.06;;;9.68;85.00
52249;BME280;38541;48.130;8.378;2023-11-19T02:45:02;92703.59;;;9.74;85.39
52249;BME280;38541;48.130;8.378;2023-11-19T02:47:33;92713.81;;;9.70;85.40
52249;BME280;38541;48.130;8.378;2023-11-19T02:50:00;92726.38;;;9.63;85.38
52249;BME280;38541;48.130;8.378;2023-11-19T02:52:27;92718.78;;;9.66;85.38
52249;BME280;38541;48.130;8.378;2023-11-19T02:54:53;92712.72;;;9.66;85.67
52249;BME280;38541;48.130;8.378;2023-11-19T02:57:20;92716.41;;;9.65;85.42
52249;BME280;38541;48.130;8.378;2023-11-19T02:59:48;92717.72;;;9.67;85.46
52249;BME280;38541;48.130;8.378;2023-11-19T03:02:15;92715.41;;;9.71;85.19
52249;BME280;38541;48.130;8.378;2023-11-19T03:04:44;92708.03;;;9.68;85.02
52249;BME280;38541;48.130;8.378;2023-11-19T03:07:38;92725.09;;;9.70;85.44
52249;BME280;38541;48.130;8.378;2023-11-19T03:10:05;92705.16;;;9.75;85.32
52249;BME280;38541;48.130;8.378;2023-11-19T03:12:32;92706.72;;;9.70;85.38
52249;BME280;38541;48.130;8.378;2023-11-19T03:14:58;92721.47;;;9.77;85.27
52249;BME280;38541;48.130;8.378;2023-11-19T03:17:25;92702.53;;;9.75;85.31
52249;BME280;38541;48.130;8.378;2023-11-19T03:19:51;92684.44;;;9.78;85.33
52249;BME280;38541;48.130;8.378;2023-11-19T03:22:18;92677.09;;;9.75;85.25
52249;BME280;38541;48.130;8.378;2023-11-19T03:24:44;92677.34;;;9.74;85.56
52249;BME280;38541;48.130;8.378;2023-11-19T03:27:11;92698.84;;;9.70;85.93
52249;BME280;38541;48.130;8.378;2023-11-19T03:29:40;92693.59;;;9.70;85.87
52249;BME280;38541;48.130;8.378;2023-11-19T03:32:06;92706.97;;;9.64;85.97
52249;BME280;38541;48.130;8.378;2023-11-19T03:34:33;92700.44;;;9.71;86.21
52249;BME280;38541;48.130;8.378;2023-11-19T03:36:59;92692.56;;;9.66;86.29
52249;BME280;38541;48.130;8.378;2023-11-19T03:39:26;92689.91;;;9.61;86.74
52249;BME280;38541;48.130;8.378;2023-11-19T03:41:53;92699.63;;;9.66;86.39
52249;BME280;38541;48.130;8.378;2023-11-19T03:44:20;92701.75;;;9.69;86.31
52249;BME280;38541;48.130;8.378;2023-11-19T03:46:47;92714.88;;;9.74;85.86
52249;BME280;38541;48.130;8.378;2023-11-19T03:49:14;92703.88;;;9.77;85.78
52249;BME280;38541;48.130;8.378;2023-11-19T03:51:40;92702.28;;;9.76;85.71
52249;BME280;38541;48.130;8.378;2023-11-19T03:54:07;92693.09;;;9.74;85.64
52249;BME280;38541;48.130;8.378;2023-11-19T03:56:33;92700.47;;;9.77;86.17
52249;BME280;38541;48.130;8.378;2023-11-19T03:59:00;92713.06;;;9.80;86.18
52249;BME280;38541;48.130;8.378;2023-11-19T04:01:27;92707.25;;;9.67;86.50
52249;BME280;38541;48.130;8.378;2023-11-19T04:03:53;92726.41;;;9.68;86.86
52249;BME280;38541;48.130;8.378;2023-11-19T04:06:22;92739.00;;;9.71;86.46
52249;BME280;38541;48.130;8.378;2023-11-19T04:08:49;92721.41;;;9.71;86.85
52249;BME280;38541;48.130;8.378;2023-11-19T04:11:17;92704.09;;;9.70;86.84
52249;BME280;38541;48.130;8.378;2023-11-19T04:13:43;92707.25;;;9.67;87.05
52249;BME280;38541;48.130;8.378;2023-11-19T04:16:10;92702.53;;;9.75;86.74
52249;BME280;38541;48.130;8.378;2023-11-19T04:18:37;92714.06;;;9.74;86.49
52249;BME280;38541;48.130;8.378;2023-11-19T04:21:06;92712.78;;;9.76;86.68
52249;BME280;38541;48.130;8.378;2023-11-19T04:23:33;92719.91;;;9.81;86.06
52249;BME280;38541;48.130;8.378;2023-11-19T04:26:02;92705.44;;;9.78;86.23
52249;BME280;38541;48.130;8.378;2023-11-19T04:28:33;92704.66;;;9.78;86.14
52249;BME280;38541;48.130;8.378;2023-11-19T04:31:00;92686.84;;;9.80;86.38
52249;BME280;38541;48.130;8.378;2023-11-19T04:33:26;92700.19;;;9.83;85.87
52249;BME280;38541;48.130;8.378;2023-11-19T04:35:53;92744.56;;;9.80;86.17
52249;BME280;38541;48.130;8.378;2023-11-19T04:38:20;92723.53;;;9.75;86.43
52249;BME280;38541;48.130;8.378;2023-11-19T04:40:46;92723.81;;;9.78;86.64
52249;BME280;38541;48.130;8.378;2023-11-19T04:43:13;92703.63;;;9.79;86.39
52249;BME280;38541;48.130;8.378;2023-11-19T04:45:40;92722.00;;;9.79;86.61
52249;BME280;38541;48.130;8.378;2023-11-19T04:48:06;92729.56;;;9.75;86.62
52249;BME280;38541;48.130;8.378;2023-11-19T04:50:33;92638.53;;;21.98;47.05
52249;BME280;38541;48.130;8.378;2023-11-19T04:52:59;92655.59;;;22.05;43.73
52249;BME280;38541;48.130;8.378;2023-11-19T04:55:26;92670.28;;;11.95;71.13
52249;BME280;38541;48.130;8.378;2023-11-19T04:57:54;92687.47;;;10.91;78.05
52249;BME280;38541;48.130;8.378;2023-11-19T05:00:20;92702.72;;;10.63;80.74
52249;BME280;38541;48.130;8.378;2023-11-19T05:02:48;92695.91;;;10.62;81.54
52249;BME280;38541;48.130;8.378;2023-11-19T05:05:15;92693.28;;;10.62;81.71
52249;BME280;38541;48.130;8.378;2023-11-19T05:07:42;92696.94;;;10.61;81.91
52249;BME280;38541;48.130;8.378;2023-11-19T05:10:09;92705.59;;;10.56;82.21
52249;BME280;38541;48.130;8.378;2023-11-19T05:12:36;92710.34;;;10.59;82.25
52249;BME280;38541;48.130;8.378;2023-11-19T05:15:02;92712.97;;;10.59;82.37
52249;BME280;38541;48.130;8.378;2023-11-19T05:17:29;92708.25;;;10.61;82.31
52249;BME280;38541;48.130;8.378;2023-11-19T05:19:56;92715.06;;;10.57;82.07
52249;BME280;38541;48.130;8.378;2023-11-19T05:22:22;92719.53;;;10.56;82.33
52249;BME280;38541;48.130;8.378;2023-11-19T05:24:49;92706.13;;;10.53;82.48
52249;BME280;38541;48.130;8.378;2023-11-19T05:27:16;92716.91;;;10.51;82.26
52249;BME280;38541;48.130;8.378;2023-11-19T05:29:43;92710.34;;;10.54;82.69
52249;BME280;38541;48.130;8.378;2023-11-19T05:32:10;92699.59;;;10.55;82.60
52249;BME280;38541;48.130;8.378;2023-11-19T05:34:36;92693.25;;;10.51;82.96
52249;BME280;38541;48.130;8.378;2023-11-19T05:37:03;92695.38;;;10.54;82.92
52249;BME280;38541;48.130;8.378;2023-11-19T05:39:32;92694.84;;;10.52;83.12
52249;BME280;38541;48.130;8.378;2023-11-19T05:41:58;92709.03;;;10.56;82.89
52249;BME280;38541;48.130;8.378;2023-11-19T05:44:25;92691.16;;;10.48;83.48
52249;BME280;38541;48.130;8.378;2023-11-19T05:46:52;92680.94;;;10.52;83.32
52249;BME280;38541;48.130;8.378;2023-11-19T05:49:18;92679.09;;;10.42;83.43
52249;BME280;38541;48.130;8.378;2023-11-19T05:51:45;92681.16;;;10.40;83.69
52249;BME280;38541;48.130;8.378;2023-11-19T05:54:12;92701.63;;;10.38;83.93
52249;BME280;38541;48.130;8.378;2023-11-19T05:56:39;92686.72;;;10.44;83.83
52249;BME280;38541;48.130;8.378;2023-11-19T05:59:06;92681.72;;;10.52;83.73
52249;BME280;38541;48.130;8.378;2023-11-19T06:01:41;92677.25;;;10.48;83.66
52249;BME280;38541;48.130;8.378;2023-11-19T06:04:08;92672.78;;;10.43;83.41
52249;BME280;38541;48.130;8.378;2023-11-19T06:06:35;92679.63;;;10.54;83.54
52249;BME280;38541;48.130;8.378;2023-11-19T06:09:03;92676.19;;;10.54;83.43
52249;BME280;38541;48.130;8.378;2023-11-19T06:11:33;92693.81;;;10.53;83.21
52249;BME280;38541;48.130;8.378;2023-11-19T06:14:00;92675.94;;;10.55;83.35
52249;BME280;38541;48.130;8.378;2023-11-19T06:16:27;92680.16;;;10.56;83.42
52249;BME280;38541;48.130;8.378;2023-11-19T06:18:53;92695.88;;;10.41;83.61
52249;BME280;38541;48.130;8.378;2023-11-19T06:21:20;92695.38;;;10.44;83.78
52249;BME280;38541;48.130;8.378;2023-11-19T06:23:46;92694.84;;;10.47;84.00
52249;BME280;38541;48.130;8.378;2023-11-19T06:26:13;92683.81;;;10.45;83.88
52249;BME280;38541;48.130;8.378;2023-11-19T06:28:40;92702.19;;;10.45;83.77
52249;BME280;38541;48.130;8.378;2023-11-19T06:31:07;92688.00;;;10.41;83.98
52249;BME280;38541;48.130;8.378;2023-11-19T06:33:33;92693.53;;;10.45;83.65
52249;BME280;38541;48.130;8.378;2023-11-19T06:36:00;92691.69;;;10.50;83.59
52249;BME280;38541;48.130;8.378;2023-11-19T06:38:26;92698.53;;;10.56;83.15
52249;BME280;38541;48.130;8.378;2023-11-19T06:40:53;92682.78;;;10.56;83.34
52249;BME280;38541;48.130;8.378;2023-11-19T06:43:20;92693.28;;;10.56;83.13
52249;BME280;38541;48.130;8.378;2023-11-19T06:45:48;92693.78;;;10.64;83.25
52249;BME280;38541;48.130;8.378;2023-11-19T06:48:14;92690.66;;;10.72;82.89
52249;BME280;38541;48.130;8.378;2023-11-19T06:50:41;92684.84;;;10.70;82.63
52249;BME280;38541;48.130;8.378;2023-11-19T06:53:07;92696.66;;;10.78;82.40
52249;BME280;38541;48.130;8.378;2023-11-19T06:55:36;92710.06;;;10.81;82.26
52249;BME280;38541;48.130;8.378;2023-11-19T06:58:03;92714.28;;;10.88;82.08
52249;BME280;38541;48.130;8.378;2023-11-19T07:00:30;92716.63;;;10.94;81.79
52249;BME280;38541;48.130;8.378;2023-11-19T07:02:59;92715.84;;;10.83;81.72
52249;BME280;38541;48.130;8.378;2023-11-19T07:05:26;92729.53;;;10.80;81.99
52249;BME280;38541;48.130;8.378;2023-11-19T07:07:52;92715.84;;;10.89;81.72
52249;BME280;38541;48.130;8.378;2023-11-19T07:10:20;92711.41;;;10.84;82.02
52249;BME280;38541;48.130;8.378;2023-11-19T07:12:46;92717.97;;;10.97;81.74
52249;BME280;38541;48.130;8.378;2023-11-19T07:15:13;92725.06;;;11.02;81.29
52249;BME280;38541;48.130;8.378;2023-11-19T07:17:40;92723.72;;;10.99;81.25
52249;BME280;38541;48.130;8.378;2023-11-19T07:20:07;92727.41;;;11.03;81.37
52249;BME280;38541;48.130;8.378;2023-11-19T07:22:33;92735.56;;;11.02;81.33
52249;BME280;38541;48.130;8.378;2023-11-19T07:25:00;92724.75;;;11.08;81.15
52249;BME280;38541;48.130;8.378;2023-11-19T07:27:27;92733.72;;;11.07;80.99
52249;BME280;38541;48.130;8.378;2023-11-19T07:29:54;92726.34;;;11.15;80.70
52249;BME280;38541;48.130;8.378;2023-11-19T07:32:20;92736.31;;;11.23;80.71
52249;BME280;38541;48.130;8.378;2023-11-19T07:34:47;92734.22;;;11.25;80.25
52249;BME280;38541;48.130;8.378;2023-11-19T07:37:13;92736.03;;;11.35;80.00
52249;BME280;38541;48.130;8.378;2023-11-19T07:39:40;92750.25;;;11.39;79.40
52249;BME280;38541;48.130;8.378;2023-11-19T07:42:08;92737.88;;;11.34;79.39
52249;BME280;38541;48.130;8.378;2023-11-19T07:44:35;92746.03;;;11.43;79.42
52249;BME280;38541;48.130;8.378;2023-11-19T07:47:03;92752.03;;;11.54;79.08
52249;BME280;38541;48.130;8.378;2023-11-19T07:49:30;92767.28;;;11.57;78.74
52249;BME280;38541;48.130;8.378;2023-11-19T07:51:57;92755.47;;;11.49;78.61
52249;BME280;38541;48.130;8.378;2023-11-19T07:54:23;92752.81;;;11.54;78.14
52249;BME280;38541;48.130;8.378;2023-11-19T07:56:50;92764.69;;;11.52;78.32
52249;BME280;38541;48.130;8.378;2023-11-19T07:59:17;92757.28;;;11.59;78.18
52249;BME280;38541;48.130;8.378;2023-11-19T08:01:43;92766.00;;;11.49;78.58
52249;BME280;38541;48.130;8.378;2023-11-19T08:04:10;92758.91;;;11.45;78.88
52249;BME280;38541;48.130;8.378;2023-11-19T08:06:37;92750.47;;;11.53;78.71
52249;BME280;38541;48.130;8.378;2023-11-19T08:09:04;92752.03;;;11.54;79.02
52249;BME280;38541;48.130;8.378;2023-11-19T08:11:33;92748.66;;;11.43;79.62
52249;BME280;38541;48.130;8.378;2023-11-19T08:14:00;92752.84;;;11.44;79.74
52249;BME280;38541;48.130;8.378;2023-11-19T08:16:26;92761.81;;;11.43;79.59
52249;BME280;38541;48.130;8.378;2023-11-19T08:18:53;92759.16;;;11.48;79.90
52249;BME280;38541;48.130;8.378;2023-11-19T08:21:20;92762.03;;;11.57;79.73
52249;BME280;38541;48.130;8.378;2023-11-19T08:23:49;92765.69;;;11.61;79.50
52249;BME280;38541;48.130;8.378;2023-11-19T08:26:15;92764.63;;;11.62;79.33
52249;BME280;38541;48.130;8.378;2023-11-19T08:28:47;92765.94;;;11.70;79.01
52249;BME280;38541;48.130;8.378;2023-11-19T08:31:14;92754.09;;;11.73;78.81
52249;BME280;38541;48.130;8.378;2023-11-19T08:33:40;92762.97;;;11.92;78.97
52249;BME280;38541;48.130;8.378;2023-11-19T08:36:07;92769.31;;;11.81;78.53
52249;BME280;38541;48.130;8.378;2023-11-19T08:38:34;92749.91;;;11.66;78.33
52249;BME280;38541;48.130;8.378;2023-11-19T08:41:00;92765.94;;;11.70;78.73
52249;BME280;38541;48.130;8.378;2023-11-19T08:43:27;92766.69;;;11.81;78.07
52249;BME280;38541;48.130;8.378;2023-11-19T08:45:54;92771.38;;;11.94;77.78
52249;BME280;38541;48.130;8.378;2023-11-19T08:48:20;92774.06;;;11.89;77.21
52249;BME280;38541;48.130;8.378;2023-11-19T08:50:47;92763.00;;;11.82;77.44
52249;BME280;38541;48.130;8.378;2023-11-19T08:53:14;92761.97;;;11.78;77.10
52249;BME280;38541;48.130;8.378;2023-11-19T08:55:40;92769.09;;;11.77;76.83
52249;BME280;38541;48.130;8.378;2023-11-19T08:58:07;92760.69;;;11.75;77.28
52249;BME280;38541;48.130;8.378;2023-11-19T09:00:33;92757.75;;;11.87;77.08
52249;BME280;38541;48.130;8.378;2023-11-19T09:03:00;92758.81;;;11.86;76.23
52249;BME280;38541;48.130;8.378;2023-11-19T09:05:27;92760.84;;;11.94;76.18
52249;BME280;38541;48.130;8.378;2023-11-19T09:07:53;92757.94;;;12.06;76.07
52249;BME280;38541;48.130;8.378;2023-11-19T09:10:20;92752.13;;;12.09;75.59
52249;BME280;38541;48.130;8.378;2023-11-19T09:12:46;92764.75;;;12.12;75.67
52249;BME280;38541;48.130;8.378;2023-11-19T09:15:13;92768.50;;;12.01;75.51
52249;BME280;38541;48.130;8.378;2023-11-19T09:17:39;92771.91;;;12.02;75.77
52249;BME280;38541;48.130;8.378;2023-11-19T09:20:07;92769.50;;;12.10;75.80
52249;BME280;38541;48.130;8.378;2023-11-19T09:22:35;92783.47;;;12.11;75.58
52249;BME280;38541;48.130;8.378;2023-11-19T09:25:01;92783.41;;;12.21;75.49
52249;BME280;38541;48.130;8.378;2023-11-19T09:27:28;92770.78;;;12.23;75.15
52249;BME280;38541;48.130;8.378;2023-11-19T09:29:54;92768.38;;;12.32;75.32
52249;BME280;38541;48.130;8.378;2023-11-19T09:32:24;92781.53;;;12.32;74.76
52249;BME280;38541;48.130;8.378;2023-11-19T09:34:51;92780.69;;;12.37;74.77
52249;BME280;38541;48.130;8.378;2023-11-19T09:37:17;92780.56;;;12.63;74.48
52249;BME280;38541;48.130;8.378;2023-11-19T09:39:48;92772.13;;;12.66;73.67
52249;BME280;38541;48.130;8.378;2023-11-19T09:42:14;92769.19;;;12.73;73.58
52249;BME280;38541;48.130;8.378;2023-11-19T09:44:42;92767.91;;;12.65;73.29
52249;BME280;38541;48.130;8.378;2023-11-19T09:47:11;92771.59;;;12.64;73.31
52249;BME280;38541;48.130;8.378;2023-11-19T09:49:39;92782.13;;;12.69;73.64
52249;BME280;38541;48.130;8.378;2023-11-19T09:52:06;92775.22;;;12.73;73.31
52249;BME280;38541;48.130;8.378;2023-11-19T09:54:32;92762.84;;;12.74;72.91
52249;BME280;38541;48.130;8.378;2023-11-19T09:56:59;92772.53;;;12.78;73.56
52249;BME280;38541;48.130;8.378;2023-11-19T09:59:31;92767.06;;;12.69;73.38
52249;BME280;38541;48.130;8.378;2023-11-19T10:01:59;92755.41;;;12.36;73.29
52249;BME280;38541;48.130;8.378;2023-11-19T10:04:29;92753.16;;;12.59;73.85
52249;BME280;38541;48.130;8.378;2023-11-19T10:06:57;92749.72;;;12.63;73.43
52249;BME280;38541;48.130;8.378;2023-11-19T10:09:23;92752.09;;;12.60;73.40
52249;BME280;38541;48.130;8.378;2023-11-19T10:11:50;92745.44;;;12.73;73.50
52249;BME280;38541;48.130;8.378;2023-11-19T10:14:22;92761.22;;;12.78;72.55
52249;BME280;38541;48.130;8.378;2023-11-19T10:16:49;92751.91;;;12.91;73.42
52249;BME280;38541;48.130;8.378;2023-11-19T10:19:19;92746.03;;;12.99;72.15
52249;BME280;38541;48.130;8.378;2023-11-19T10:21:47;92766.34;;;12.98;72.13
52249;BME280;38541;48.130;8.378;2023-11-19T10:24:13;92740.22;;;13.02;72.20
52249;BME280;38541;48.130;8.378;2023-11-19T10:26:56;92750.91;;;13.16;72.85
52249;BME280;38541;48.130;8.378;2023-11-19T10:29:24;92767.78;;;13.15;72.72
52249;BME280;38541;48.130;8.378;2023-11-19T10:31:57;92763.81;;;13.18;73.04
52249;BME280;38541;48.130;8.378;2023-11-19T10:34:44;92744.81;;;13.16;73.43
52249;BME280;38541;48.130;8.378;2023-11-19T10:37:30;92752.22;;;13.13;73.39
52249;BME280;38541;48.130;8.378;2023-11-19T10:39:59;92750.66;;;13.12;73.90
52249;BME280;38541;48.130;8.378;2023-11-19T10:42:26;92748.00;;;13.18;74.13
52249;BME280;38541;48.130;8.378;2023-11-19T10:44:53;92750.66;;;13.12;73.25
52249;BME280;38541;48.130;8.378;2023-11-19T10:47:20;92774.22;;;13.04;72.47
52249;BME280;38541;48.130;8.378;2023-11-19T10:50:04;92751.28;;;13.04;72.78
52249;BME280;38541;48.130;8.378;2023-11-19T10:52:32;92746.75;;;13.10;72.52
52249;BME280;38541;48.130;8.378;2023-11-19T10:55:00;92757.06;;;13.06;72.59
52249;BME280;38541;48.130;8.378;2023-11-19T10:57:29;92766.94;;;12.90;74.10
52249;BME280;38541;48.130;8.378;2023-11-19T11:00:00;92764.63;;;12.83;74.54
52249;BME280;38541;48.130;8.378;2023-11-19T11:02:30;92755.44;;;12.76;74.95
52249;BME280;38541;48.130;8.378;2023-11-19T11:05:01;92766.25;;;12.74;75.02
52249;BME280;38541;48.130;8.378;2023-11-19T11:07:30;92767.97;;;12.54;75.07
52249;BME280;38541;48.130;8.378;2023-11-19T11:10:07;92766.34;;;12.59;75.27
52249;BME280;38541;48.130;8.378;2023-11-19T11:12:36;92747.00;;;13.08;75.86
52249;BME280;38541;48.130;8.378;2023-11-19T11:15:05;92743.56;;;13.13;73.91
52249;BME280;38541;48.130;8.378;2023-11-19T11:17:33;92762.72;;;13.24;72.83
52249;BME280;38541;48.130;8.378;2023-11-19T11:20:01;92773.44;;;13.03;71.48
52249;BME280;38541;48.130;8.378;2023-11-19T11:22:35;92751.72;;;13.11;71.52
52249;BME280;38541;48.130;8.378;2023-11-19T11:25:21;92746.00;;;13.34;72.04
52249;BME280;38541;48.130;8.378;2023-11-19T11:27:58;92748.97;;;13.27;70.68
52249;BME280;38541;48.130;8.378;2023-11-19T11:30:44;92756.63;;;13.23;70.99
52249;BME280;38541;48.130;8.378;2023-11-19T11:33:26;92740.78;;;13.29;71.01
52249;BME280;38541;48.130;8.378;2023-11-19T11:36:06;92729.94;;;13.30;70.96
52249;BME280;38541;48.130;8.378;2023-11-19T11:38:37;92733.13;;;13.81;70.67
52249;BME280;38541;48.130;8.378;2023-11-19T11:41:22;92739.41;;;13.85;69.46
52249;BME280;38541;48.130;8.378;2023-11-19T11:43:57;92734.47;;;14.03;68.81
52249;BME280;38541;48.130;8.378;2023-11-19T11:49:04;92721.09;;;13.45;69.73
52249;BME280;38541;48.130;8.378;2023-11-19T11:54:30;92716.09;;;13.14;70.38
52249;BME280;38541;48.130;8.378;2023-11-19T11:57:08;92708.38;;;13.23;70.88
52249;BME280;38541;48.130;8.378;2023-11-19T12:02:09;92713.81;;;13.61;69.23
52249;BME280;38541;48.130;8.378;2023-11-19T12:04:36;92700.47;;;13.72;69.51
52249;BME280;38541;48.130;8.378;2023-11-19T12:09:32;92702.41;;;14.09;68.70
52249;BME280;38541;48.130;8.378;2023-11-19T12:12:17;92713.91;;;14.19;68.63
52249;BME280;38541;48.130;8.378;2023-11-19T12:15:04;92686.84;;;14.08;68.41
52249;BME280;38541;48.130;8.378;2023-11-19T12:17:42;92678.22;;;14.21;67.84
52249;BME280;38541;48.130;8.378;2023-11-19T12:20:11;92701.97;;;14.02;68.03
52249;BME280;38541;48.130;8.378;2023-11-19T12:22:39;92720.91;;;14.29;67.59
52249;BME280;38541;48.130;8.378;2023-11-19T12:25:07;92714.97;;;13.98;67.51
52249;BME280;38541;48.130;8.378;2023-11-19T12:27:36;92718.03;;;14.06;67.90
52249;BME280;38541;48.130;8.378;2023-11-19T12:30:03;92698.84;;;14.38;68.20
52249;BME280;38541;48.130;8.378;2023-11-19T12:32:43;92694.63;;;14.57;66.64
52249;BME280;38541;48.130;8.378;2023-11-19T12:35:11;92705.81;;;14.67;65.56
52249;BME280;38541;48.130;8.378;2023-11-19T12:42:47;92710.13;;;14.25;65.82
52249;BME280;38541;48.130;8.378;2023-11-19T12:45:14;92713.63;;;14.20;67.32
52249;BME280;38541;48.130;8.378;2023-11-19T12:47:43;92712.63;;;14.16;65.77
52249;BME280;38541;48.130;8.378;2023-11-19T12:50:10;92706.88;;;13.90;66.28
52249;BME280;38541;48.130;8.378;2023-11-19T12:52:37;92695.69;;;13.74;68.37
52249;BME280;38541;48.130;8.378;2023-11-19T12:55:05;92696.84;;;13.67;68.51
52249;BME280;38541;48.130;8.378;2023-11-19T12:57:42;92687.84;;;13.68;67.68
52249;BME280;38541;48.130;8.378;2023-11-19T13:00:20;92696.59;;;13.39;68.91
52249;BME280;38541;48.130;8.378;2023-11-19T13:02:51;92690.63;;;13.58;68.63
52249;BME280;38541;48.130;8.378;2023-11-19T13:05:32;92688.84;;;13.73;68.34
52249;BME280;38541;48.130;8.378;2023-11-19T13:08:07;92692.22;;;13.78;68.08
52249;BME280;38541;48.130;8.378;2023-11-19T13:10:53;92693.63;;;13.70;68.73
52249;BME280;38541;48.130;8.378;2023-11-19T13:13:22;92690.13;;;14.00;67.59
52249;BME280;38541;48.130;8.378;2023-11-19T13:15:48;92688.66;;;13.88;67.14
52249;BME280;38541;48.130;8.378;2023-11-19T13:18:16;92691.13;;;13.60;67.68
52249;BME280;38541;48.130;8.378;2023-11-19T13:20:43;92679.19;;;13.38;68.48
52249;BME280;38541;48.130;8.378;2023-11-19T13:23:09;92693.53;;;13.57;67.35
52249;BME280;38541;48.130;8.378;2023-11-19T13:25:42;92690.72;;;13.48;67.26
52249;BME280;38541;48.130;8.378;2023-11-19T13:28:10;92700.34;;;13.33;66.75
52249;BME280;38541;48.130;8.378;2023-11-19T13:30:36;92709.38;;;13.27;65.74